MMTP/TAP METAR and TAF weather

Enter ICAO airport designator
Station Type Date Time Source
MMTP METAR 2020/07/07 23:40 UTC NOAA

MMTP 072340Z 27008KT 8SM SCT200 30/24 A2985 RMK SLP131 57008 957 8/002 HZY


Station Type Date Time Source
MMTP Decoded METAR 2020/07/07 23:40 UTC NOAA

Tapachula , Mexico (MMTP) 14-47N 092-23W
Jul 07, 2020 - 07:40 PM EDT / 2020.07.07 2340 UTC
Wind: from the W (270 degrees) at 9 MPH (8 KT):0
Visibility: 8 mile(s):0
Sky conditions: partly cloudy
Temperature: 86 F (30 C)
Heat index: 95.0 F (35.0 C):1
Dew Point: 75 F (24 C)
Relative Humidity: 70%
Pressure (altimeter): 29.85 in. Hg (1010 hPa)
Pressure tendency: 0.02 inches (0.8 hPa) lower than three hours ago
ob: MMTP 072340Z 27008KT 8SM SCT200 30/24 A2985 RMK SLP131 57008 957 8/002 HZY
cycle: 23

Station Type Date Time Source
MMTP TAF 2020/07/07 18:19 UTC NOAA

TAF MMTP 071712Z 0718/0824 25010KT P6SM SCT020 BKN250 TX31/0719Z TN23/0812Z
TEMPO 0722/0802 5SM TSRA BKN020CB
FM080400 33005KT P6SM SCT020 BKN070 BKN250
FM081000 29008KT P6SM SCT020 SCT250 PROB40 0821/0824 5SM -TSRA BKN020CB

Example: see airport list